sensor_id;sensor_type;location;lat;lon;timestamp;pressure;altitude;pressure_sealevel;temperature;humidity
57000;BME280;42891;50.006;21.964;2024-01-15T00:01:48;51223.09;;;-146.02;74.90
57000;BME280;42891;50.006;21.964;2024-01-15T00:05:49;51225.13;;;-146.02;74.97
57000;BME280;42891;50.006;21.964;2024-01-15T00:09:49;51199.06;;;-146.02;75.31
57000;BME280;42891;50.006;21.964;2024-01-15T00:13:49;51225.13;;;-146.02;74.47
57000;BME280;42891;50.006;21.964;2024-01-15T00:17:49;51233.13;;;-146.02;74.84
57000;BME280;42891;50.006;21.964;2024-01-15T00:21:50;51195.06;;;-146.02;74.49
57000;BME280;42891;50.006;21.964;2024-01-15T00:25:51;51219.09;;;-146.02;74.96
57000;BME280;42891;50.006;21.964;2024-01-15T00:29:52;51223.09;;;-146.02;74.77
57000;BME280;42891;50.006;21.964;2024-01-15T00:33:52;51189.03;;;-146.02;74.46
57000;BME280;42891;50.006;21.964;2024-01-15T00:37:52;51217.09;;;-146.02;74.79
57000;BME280;42891;50.006;21.964;2024-01-15T00:41:53;51221.09;;;-146.02;74.57
57000;BME280;42891;50.006;21.964;2024-01-15T00:45:53;51199.06;;;-146.02;74.41
57000;BME280;42891;50.006;21.964;2024-01-15T00:49:53;51209.09;;;-146.02;74.55
57000;BME280;42891;50.006;21.964;2024-01-15T00:53:54;51205.06;;;-146.02;74.33
57000;BME280;42891;50.006;21.964;2024-01-15T00:57:54;51213.09;;;-146.02;74.06
57000;BME280;42891;50.006;21.964;2024-01-15T01:01:54;51223.09;;;-146.02;74.57
57000;BME280;42891;50.006;21.964;2024-01-15T01:05:54;51203.06;;;-146.02;74.26
57000;BME280;42891;50.006;21.964;2024-01-15T01:09:55;51215.09;;;-146.02;74.04
57000;BME280;42891;50.006;21.964;2024-01-15T01:13:55;51225.13;;;-146.02;73.90
57000;BME280;42891;50.006;21.964;2024-01-15T01:17:56;51243.16;;;-146.02;73.23
57000;BME280;42891;50.006;21.964;2024-01-15T01:21:57;51241.16;;;-146.02;73.45
57000;BME280;42891;50.006;21.964;2024-01-15T01:25:57;51207.06;;;-146.02;73.26
57000;BME280;42891;50.006;21.964;2024-01-15T01:29:57;51187.03;;;-146.02;72.70
57000;BME280;42891;50.006;21.964;2024-01-15T01:33:57;51201.06;;;-146.02;73.04
57000;BME280;42891;50.006;21.964;2024-01-15T01:37:58;51201.06;;;-146.02;72.70
57000;BME280;42891;50.006;21.964;2024-01-15T01:41:58;51189.03;;;-146.02;72.99
57000;BME280;42891;50.006;21.964;2024-01-15T01:46:00;51209.09;;;-146.02;72.73
57000;BME280;42891;50.006;21.964;2024-01-15T01:50:01;51213.09;;;-146.02;72.66
57000;BME280;42891;50.006;21.964;2024-01-15T01:54:03;51205.06;;;-146.02;72.41
57000;BME280;42891;50.006;21.964;2024-01-15T01:58:04;51221.09;;;-146.02;72.61
57000;BME280;42891;50.006;21.964;2024-01-15T02:02:05;51211.09;;;-146.02;72.20
57000;BME280;42891;50.006;21.964;2024-01-15T02:06:06;51215.09;;;-146.02;72.20
57000;BME280;42891;50.006;21.964;2024-01-15T02:10:06;51229.13;;;-146.02;72.38
57000;BME280;42891;50.006;21.964;2024-01-15T02:14:07;51197.06;;;-146.02;72.77
57000;BME280;42891;50.006;21.964;2024-01-15T02:18:07;51217.09;;;-146.02;72.46
57000;BME280;42891;50.006;21.964;2024-01-15T02:22:07;51237.13;;;-146.02;72.60
57000;BME280;42891;50.006;21.964;2024-01-15T02:26:08;51237.13;;;-146.02;72.99
57000;BME280;42891;50.006;21.964;2024-01-15T02:30:11;51205.06;;;-146.02;72.81
57000;BME280;42891;50.006;21.964;2024-01-15T02:34:11;51249.16;;;-146.02;72.94
57000;BME280;42891;50.006;21.964;2024-01-15T02:38:12;51249.16;;;-146.02;72.77
57000;BME280;42891;50.006;21.964;2024-01-15T02:42:12;51201.06;;;-146.02;72.91
57000;BME280;42891;50.006;21.964;2024-01-15T02:46:12;51197.06;;;-146.02;73.21
57000;BME280;42891;50.006;21.964;2024-01-15T02:50:14;51171.00;;;-146.02;72.75
57000;BME280;42891;50.006;21.964;2024-01-15T02:54:14;51213.09;;;-146.02;72.48
57000;BME280;42891;50.006;21.964;2024-01-15T02:58:15;51241.16;;;-146.02;72.62
57000;BME280;42891;50.006;21.964;2024-01-15T03:02:15;51203.06;;;-146.02;72.34
57000;BME280;42891;50.006;21.964;2024-01-15T03:06:15;51207.06;;;-146.02;72.53
57000;BME280;42891;50.006;21.964;2024-01-15T03:10:16;51225.13;;;-146.02;71.84
57000;BME280;42891;50.006;21.964;2024-01-15T03:14:16;51235.13;;;-146.02;72.20
57000;BME280;42891;50.006;21.964;2024-01-15T03:18:16;51219.09;;;-146.02;71.74
57000;BME280;42891;50.006;21.964;2024-01-15T03:22:17;51219.09;;;-146.02;71.39
57000;BME280;42891;50.006;21.964;2024-01-15T03:26:17;51163.00;;;-146.02;70.89
57000;BME280;42891;50.006;21.964;2024-01-15T03:30:18;51209.09;;;-146.02;70.44
57000;BME280;42891;50.006;21.964;2024-01-15T03:34:18;51223.09;;;-146.02;69.90
57000;BME280;42891;50.006;21.964;2024-01-15T03:38:18;51211.09;;;-146.02;70.26
57000;BME280;42891;50.006;21.964;2024-01-15T03:42:19;51165.00;;;-146.02;69.80
57000;BME280;42891;50.006;21.964;2024-01-15T03:46:20;51211.09;;;-146.02;69.60
57000;BME280;42891;50.006;21.964;2024-01-15T03:50:20;51181.03;;;-146.02;69.90
57000;BME280;42891;50.006;21.964;2024-01-15T03:54:20;51215.09;;;-146.02;69.44
57000;BME280;42891;50.006;21.964;2024-01-15T03:58:21;51187.03;;;-146.02;69.33
57000;BME280;42891;50.006;21.964;2024-01-15T04:02:21;51229.13;;;-146.02;68.91
57000;BME280;42891;50.006;21.964;2024-01-15T04:06:21;51213.09;;;-146.02;68.93
57000;BME280;42891;50.006;21.964;2024-01-15T04:10:22;51175.00;;;-146.02;69.19
57000;BME280;42891;50.006;21.964;2024-01-15T04:14:22;51209.09;;;-146.02;68.27
57000;BME280;42891;50.006;21.964;2024-01-15T04:18:22;51191.03;;;-146.02;68.41
57000;BME280;42891;50.006;21.964;2024-01-15T04:22:23;51241.16;;;-146.02;68.59
57000;BME280;42891;50.006;21.964;2024-01-15T04:26:23;51247.16;;;-146.02;68.86
57000;BME280;42891;50.006;21.964;2024-01-15T04:30:23;51221.09;;;-146.02;68.92
57000;BME280;42891;50.006;21.964;2024-01-15T04:34:24;51235.13;;;-146.02;68.94
57000;BME280;42891;50.006;21.964;2024-01-15T04:38:24;51209.09;;;-146.02;69.39
57000;BME280;42891;50.006;21.964;2024-01-15T04:42:24;51221.09;;;-146.02;69.65
57000;BME280;42891;50.006;21.964;2024-01-15T04:46:25;51219.09;;;-146.02;69.38
57000;BME280;42891;50.006;21.964;2024-01-15T04:50:25;51239.13;;;-146.02;69.50
57000;BME280;42891;50.006;21.964;2024-01-15T04:54:25;51217.09;;;-146.02;69.58
57000;BME280;42891;50.006;21.964;2024-01-15T04:58:26;51205.06;;;-146.02;70.19
57000;BME280;42891;50.006;21.964;2024-01-15T05:02:27;51217.09;;;-146.02;70.34
57000;BME280;42891;50.006;21.964;2024-01-15T05:06:27;51217.09;;;-146.02;70.34
57000;BME280;42891;50.006;21.964;2024-01-15T05:10:28;51215.09;;;-146.02;69.85
57000;BME280;42891;50.006;21.964;2024-01-15T05:14:28;51205.06;;;-146.02;69.79
57000;BME280;42891;50.006;21.964;2024-01-15T05:18:28;51223.09;;;-146.02;69.67
57000;BME280;42891;50.006;21.964;2024-01-15T05:22:28;51209.09;;;-146.02;70.18
57000;BME280;42891;50.006;21.964;2024-01-15T05:26:29;51241.16;;;-146.02;70.27
57000;BME280;42891;50.006;21.964;2024-01-15T05:30:29;51185.03;;;-146.02;69.91
57000;BME280;42891;50.006;21.964;2024-01-15T05:34:29;51215.09;;;-146.02;69.67
57000;BME280;42891;50.006;21.964;2024-01-15T05:38:29;51207.06;;;-146.02;70.31
57000;BME280;42891;50.006;21.964;2024-01-15T05:42:30;51247.16;;;-146.02;70.30
57000;BME280;42891;50.006;21.964;2024-01-15T05:46:32;51177.03;;;-146.02;70.17
57000;BME280;42891;50.006;21.964;2024-01-15T05:50:32;51213.09;;;-146.02;69.99
57000;BME280;42891;50.006;21.964;2024-01-15T05:54:32;51215.09;;;-146.02;70.75
57000;BME280;42891;50.006;21.964;2024-01-15T05:58:33;51205.06;;;-146.02;70.70
57000;BME280;42891;50.006;21.964;2024-01-15T06:02:33;51195.06;;;-146.02;70.33
57000;BME280;42891;50.006;21.964;2024-01-15T06:06:33;51241.16;;;-146.02;70.69
57000;BME280;42891;50.006;21.964;2024-01-15T06:10:33;51219.09;;;-146.02;70.70
57000;BME280;42891;50.006;21.964;2024-01-15T06:14:34;51247.16;;;-146.02;70.78
57000;BME280;42891;50.006;21.964;2024-01-15T06:18:34;51195.06;;;-146.02;70.68
57000;BME280;42891;50.006;21.964;2024-01-15T06:22:34;51219.09;;;-146.02;71.22
57000;BME280;42891;50.006;21.964;2024-01-15T06:26:35;51211.09;;;-146.02;70.91
57000;BME280;42891;50.006;21.964;2024-01-15T06:30:36;51229.13;;;-146.02;70.62
57000;BME280;42891;50.006;21.964;2024-01-15T06:34:36;51235.13;;;-146.02;70.68
57000;BME280;42891;50.006;21.964;2024-01-15T06:38:37;51193.06;;;-146.02;70.67
57000;BME280;42891;50.006;21.964;2024-01-15T06:42:37;51239.13;;;-146.02;70.72
57000;BME280;42891;50.006;21.964;2024-01-15T06:46:42;51219.09;;;-146.02;70.75
57000;BME280;42891;50.006;21.964;2024-01-15T06:50:43;51219.09;;;-146.02;70.77
57000;BME280;42891;50.006;21.964;2024-01-15T06:54:43;51211.09;;;-146.02;70.49
57000;BME280;42891;50.006;21.964;2024-01-15T06:58:43;51247.16;;;-146.02;70.30
57000;BME280;42891;50.006;21.964;2024-01-15T07:02:44;51227.13;;;-146.02;70.93
57000;BME280;42891;50.006;21.964;2024-01-15T07:06:44;51205.06;;;-146.02;70.60
57000;BME280;42891;50.006;21.964;2024-01-15T07:10:44;51209.09;;;-146.02;70.47
57000;BME280;42891;50.006;21.964;2024-01-15T07:14:45;51235.13;;;-146.02;70.77
57000;BME280;42891;50.006;21.964;2024-01-15T07:18:45;51211.09;;;-146.02;70.14
57000;BME280;42891;50.006;21.964;2024-01-15T07:22:45;51223.09;;;-146.02;69.55
57000;BME280;42891;50.006;21.964;2024-01-15T07:26:45;51223.09;;;-146.02;70.00
57000;BME280;42891;50.006;21.964;2024-01-15T07:30:46;51205.06;;;-146.02;69.41
57000;BME280;42891;50.006;21.964;2024-01-15T07:34:46;51221.09;;;-146.02;69.88
57000;BME280;42891;50.006;21.964;2024-01-15T07:38:46;51201.06;;;-146.02;69.34
57000;BME280;42891;50.006;21.964;2024-01-15T07:42:46;51197.06;;;-146.02;68.78
57000;BME280;42891;50.006;21.964;2024-01-15T07:46:47;51185.03;;;-146.02;68.80
57000;BME280;42891;50.006;21.964;2024-01-15T07:50:48;51197.06;;;-146.02;68.89
57000;BME280;42891;50.006;21.964;2024-01-15T07:54:48;51215.09;;;-146.02;68.84
57000;BME280;42891;50.006;21.964;2024-01-15T07:58:48;51185.03;;;-146.02;68.20
57000;BME280;42891;50.006;21.964;2024-01-15T08:02:49;51239.13;;;-146.02;68.47
57000;BME280;42891;50.006;21.964;2024-01-15T08:06:49;51211.09;;;-146.02;68.81
57000;BME280;42891;50.006;21.964;2024-01-15T08:10:50;51209.09;;;-146.02;68.49
57000;BME280;42891;50.006;21.964;2024-01-15T08:14:50;51215.09;;;-146.02;68.50
57000;BME280;42891;50.006;21.964;2024-01-15T08:18:50;51215.09;;;-146.02;68.44
57000;BME280;42891;50.006;21.964;2024-01-15T08:22:51;51219.09;;;-146.02;67.85
57000;BME280;42891;50.006;21.964;2024-01-15T08:26:51;51237.13;;;-146.02;68.11
57000;BME280;42891;50.006;21.964;2024-01-15T08:30:52;51223.09;;;-146.02;67.47
57000;BME280;42891;50.006;21.964;2024-01-15T08:34:52;51243.16;;;-146.02;67.90
57000;BME280;42891;50.006;21.964;2024-01-15T08:38:52;51217.09;;;-146.02;67.08
57000;BME280;42891;50.006;21.964;2024-01-15T08:42:52;51233.13;;;-146.02;66.98
57000;BME280;42891;50.006;21.964;2024-01-15T08:46:54;51223.09;;;-146.02;66.97
57000;BME280;42891;50.006;21.964;2024-01-15T08:50:54;51211.09;;;-146.02;67.24
57000;BME280;42891;50.006;21.964;2024-01-15T08:54:58;51227.13;;;-146.02;67.19
57000;BME280;42891;50.006;21.964;2024-01-15T08:58:58;51219.09;;;-146.02;67.34
57000;BME280;42891;50.006;21.964;2024-01-15T09:02:59;51207.06;;;-146.02;67.07
57000;BME280;42891;50.006;21.964;2024-01-15T09:06:59;51195.06;;;-146.02;67.28
57000;BME280;42891;50.006;21.964;2024-01-15T09:10:59;51183.03;;;-146.02;66.67
57000;BME280;42891;50.006;21.964;2024-01-15T09:15:03;51195.06;;;-146.02;66.48
57000;BME280;42891;50.006;21.964;2024-01-15T09:19:04;51217.09;;;-146.02;66.27
57000;BME280;42891;50.006;21.964;2024-01-15T09:23:04;51223.09;;;-146.02;66.39
57000;BME280;42891;50.006;21.964;2024-01-15T09:27:04;51181.03;;;-146.02;66.55
57000;BME280;42891;50.006;21.964;2024-01-15T09:31:05;51225.13;;;-146.02;66.87
57000;BME280;42891;50.006;21.964;2024-01-15T09:35:06;51221.09;;;-146.02;65.97
57000;BME280;42891;50.006;21.964;2024-01-15T09:39:06;51201.06;;;-146.02;66.12
57000;BME280;42891;50.006;21.964;2024-01-15T09:43:08;51195.06;;;-146.02;65.38
57000;BME280;42891;50.006;21.964;2024-01-15T09:47:09;51215.09;;;-146.02;64.86
57000;BME280;42891;50.006;21.964;2024-01-15T09:51:10;51217.09;;;-146.02;64.44
57000;BME280;42891;50.006;21.964;2024-01-15T09:55:11;51197.06;;;-146.02;64.66
57000;BME280;42891;50.006;21.964;2024-01-15T09:59:16;51233.13;;;-146.02;64.67
57000;BME280;42891;50.006;21.964;2024-01-15T10:03:17;51201.06;;;-146.02;64.28
57000;BME280;42891;50.006;21.964;2024-01-15T10:07:18;51175.00;;;-146.02;64.04
57000;BME280;42891;50.006;21.964;2024-01-15T10:11:19;51211.09;;;-146.02;63.89
57000;BME280;42891;50.006;21.964;2024-01-15T10:15:22;51223.09;;;-146.02;63.58
57000;BME280;42891;50.006;21.964;2024-01-15T10:19:23;51207.06;;;-146.02;63.00
57000;BME280;42891;50.006;21.964;2024-01-15T10:23:26;51217.09;;;-146.02;62.81
57000;BME280;42891;50.006;21.964;2024-01-15T10:27:27;51223.09;;;-146.02;62.51
57000;BME280;42891;50.006;21.964;2024-01-15T10:31:28;51217.09;;;-146.02;62.06
57000;BME280;42891;50.006;21.964;2024-01-15T10:35:30;51215.09;;;-146.02;61.75
57000;BME280;42891;50.006;21.964;2024-01-15T10:39:31;51211.09;;;-146.02;61.43
57000;BME280;42891;50.006;21.964;2024-01-15T10:43:31;51225.13;;;-146.02;61.25
57000;BME280;42891;50.006;21.964;2024-01-15T10:47:32;51213.09;;;-146.02;61.37
57000;BME280;42891;50.006;21.964;2024-01-15T10:51:33;51235.13;;;-146.02;61.29
57000;BME280;42891;50.006;21.964;2024-01-15T10:55:35;51217.09;;;-146.02;61.62
57000;BME280;42891;50.006;21.964;2024-01-15T10:59:36;51229.13;;;-146.02;61.54
57000;BME280;42891;50.006;21.964;2024-01-15T11:03:36;51173.00;;;-146.02;62.03
57000;BME280;42891;50.006;21.964;2024-01-15T11:07:39;51207.06;;;-146.02;62.18
57000;BME280;42891;50.006;21.964;2024-01-15T11:11:41;51197.06;;;-146.02;61.87
57000;BME280;42891;50.006;21.964;2024-01-15T11:15:58;51195.06;;;-146.02;62.12
57000;BME280;42891;50.006;21.964;2024-01-15T11:19:59;51187.03;;;-146.02;61.66
57000;BME280;42891;50.006;21.964;2024-01-15T11:24:00;51213.09;;;-146.02;62.34
57000;BME280;42891;50.006;21.964;2024-01-15T11:28:01;51193.06;;;-146.02;61.67
57000;BME280;42891;50.006;21.964;2024-01-15T11:32:06;51237.13;;;-146.02;62.10
57000;BME280;42891;50.006;21.964;2024-01-15T11:36:07;51233.13;;;-146.02;61.60
57000;BME280;42891;50.006;21.964;2024-01-15T11:40:08;51169.00;;;-146.02;61.44
57000;BME280;42891;50.006;21.964;2024-01-15T11:44:12;51185.03;;;-146.02;61.83
57000;BME280;42891;50.006;21.964;2024-01-15T11:48:14;51197.06;;;-146.02;61.32
57000;BME280;42891;50.006;21.964;2024-01-15T11:52:20;51201.06;;;-146.02;61.82
57000;BME280;42891;50.006;21.964;2024-01-15T11:56:21;51223.09;;;-146.02;61.86
57000;BME280;42891;50.006;21.964;2024-01-15T12:00:23;51227.13;;;-146.02;62.34
57000;BME280;42891;50.006;21.964;2024-01-15T12:04:23;51211.09;;;-146.02;62.83
57000;BME280;42891;50.006;21.964;2024-01-15T12:08:24;51203.06;;;-146.02;62.58
57000;BME280;42891;50.006;21.964;2024-01-15T12:12:37;51189.03;;;-146.02;61.89
57000;BME280;42891;50.006;21.964;2024-01-15T12:16:39;51205.06;;;-146.02;62.09
57000;BME280;42891;50.006;21.964;2024-01-15T12:20:41;51245.16;;;-146.02;62.41
57000;BME280;42891;50.006;21.964;2024-01-15T12:24:42;51193.06;;;-146.02;61.70
57000;BME280;42891;50.006;21.964;2024-01-15T12:28:42;51189.03;;;-146.02;61.85
57000;BME280;42891;50.006;21.964;2024-01-15T12:32:43;51233.13;;;-146.02;62.23
57000;BME280;42891;50.006;21.964;2024-01-15T12:36:46;51229.13;;;-146.02;61.48
57000;BME280;42891;50.006;21.964;2024-01-15T12:40:46;51211.09;;;-146.02;60.99
57000;BME280;42891;50.006;21.964;2024-01-15T12:44:47;51211.09;;;-146.02;60.63
57000;BME280;42891;50.006;21.964;2024-01-15T12:48:47;51233.13;;;-146.02;59.92
57000;BME280;42891;50.006;21.964;2024-01-15T12:52:48;51177.03;;;-146.02;59.53
57000;BME280;42891;50.006;21.964;2024-01-15T12:56:48;51201.06;;;-146.02;59.45
57000;BME280;42891;50.006;21.964;2024-01-15T13:00:48;51215.09;;;-146.02;58.97
57000;BME280;42891;50.006;21.964;2024-01-15T13:04:48;51197.06;;;-146.02;58.90
57000;BME280;42891;50.006;21.964;2024-01-15T13:08:49;51213.09;;;-146.02;58.38
57000;BME280;42891;50.006;21.964;2024-01-15T13:12:49;51219.09;;;-146.02;58.88
57000;BME280;42891;50.006;21.964;2024-01-15T13:16:50;51187.03;;;-146.02;58.91
57000;BME280;42891;50.006;21.964;2024-01-15T13:20:51;51205.06;;;-146.02;59.12
57000;BME280;42891;50.006;21.964;2024-01-15T13:24:52;51150.97;;;-146.02;59.69
57000;BME280;42891;50.006;21.964;2024-01-15T13:28:52;51219.09;;;-146.02;59.43
57000;BME280;42891;50.006;21.964;2024-01-15T13:32:53;51197.06;;;-146.02;59.62
57000;BME280;42891;50.006;21.964;2024-01-15T13:36:56;51191.03;;;-146.02;59.57
57000;BME280;42891;50.006;21.964;2024-01-15T13:40:57;51211.09;;;-146.02;59.62
57000;BME280;42891;50.006;21.964;2024-01-15T13:44:57;51197.06;;;-146.02;59.24
57000;BME280;42891;50.006;21.964;2024-01-15T13:48:58;51179.03;;;-146.02;59.35
57000;BME280;42891;50.006;21.964;2024-01-15T13:52:58;51225.13;;;-146.02;59.23
57000;BME280;42891;50.006;21.964;2024-01-15T13:56:59;51223.09;;;-146.02;57.99
57000;BME280;42891;50.006;21.964;2024-01-15T14:01:00;51217.09;;;-146.02;58.07
57000;BME280;42891;50.006;21.964;2024-01-15T14:05:00;51221.09;;;-146.02;57.54
57000;BME280;42891;50.006;21.964;2024-01-15T14:09:02;51199.06;;;-146.02;57.58
57000;BME280;42891;50.006;21.964;2024-01-15T14:13:04;51225.13;;;-146.02;57.31
57000;BME280;42891;50.006;21.964;2024-01-15T14:17:05;51235.13;;;-146.02;57.21
57000;BME280;42891;50.006;21.964;2024-01-15T14:21:05;51201.06;;;-146.02;57.49
57000;BME280;42891;50.006;21.964;2024-01-15T14:25:07;51203.06;;;-146.02;60.45
57000;BME280;42891;50.006;21.964;2024-01-15T14:29:07;51195.06;;;-146.02;61.33
57000;BME280;42891;50.006;21.964;2024-01-15T14:33:07;51223.09;;;-146.02;61.93
57000;BME280;42891;50.006;21.964;2024-01-15T14:37:08;51203.06;;;-146.02;62.01
57000;BME280;42891;50.006;21.964;2024-01-15T14:41:08;51225.13;;;-146.02;61.95
57000;BME280;42891;50.006;21.964;2024-01-15T14:45:09;51215.09;;;-146.02;61.64
57000;BME280;42891;50.006;21.964;2024-01-15T14:49:11;51175.00;;;-146.02;59.90
57000;BME280;42891;50.006;21.964;2024-01-15T14:53:12;51227.13;;;-146.02;58.30
57000;BME280;42891;50.006;21.964;2024-01-15T14:57:12;51209.09;;;-146.02;57.30
57000;BME280;42891;50.006;21.964;2024-01-15T15:01:12;51237.13;;;-146.02;55.93
57000;BME280;42891;50.006;21.964;2024-01-15T15:05:13;51205.06;;;-146.02;55.28
57000;BME280;42891;50.006;21.964;2024-01-15T15:09:13;51249.16;;;-146.02;55.12
57000;BME280;42891;50.006;21.964;2024-01-15T15:13:14;51221.09;;;-146.02;55.03
57000;BME280;42891;50.006;21.964;2024-01-15T15:17:14;51201.06;;;-146.02;55.01
57000;BME280;42891;50.006;21.964;2024-01-15T15:21:14;51213.09;;;-146.02;55.55
57000;BME280;42891;50.006;21.964;2024-01-15T15:25:14;51221.09;;;-146.02;54.96
57000;BME280;42891;50.006;21.964;2024-01-15T15:29:15;51179.03;;;-146.02;55.44
57000;BME280;42891;50.006;21.964;2024-01-15T15:33:16;51181.03;;;-146.02;55.70
57000;BME280;42891;50.006;21.964;2024-01-15T15:37:18;51181.03;;;-146.02;55.32
57000;BME280;42891;50.006;21.964;2024-01-15T15:41:18;51237.13;;;-146.02;55.42
57000;BME280;42891;50.006;21.964;2024-01-15T15:45:18;51217.09;;;-146.02;55.76
57000;BME280;42891;50.006;21.964;2024-01-15T15:49:20;51205.06;;;-146.02;55.77
57000;BME280;42891;50.006;21.964;2024-01-15T15:53:21;51217.09;;;-146.02;56.20
57000;BME280;42891;50.006;21.964;2024-01-15T15:57:22;51221.09;;;-146.02;56.04
57000;BME280;42891;50.006;21.964;2024-01-15T16:01:22;51189.03;;;-146.02;55.07
57000;BME280;42891;50.006;21.964;2024-01-15T16:05:23;51235.13;;;-146.02;55.39
57000;BME280;42891;50.006;21.964;2024-01-15T16:09:23;51247.16;;;-146.02;55.32
57000;BME280;42891;50.006;21.964;2024-01-15T16:13:23;51215.09;;;-146.02;55.43
57000;BME280;42891;50.006;21.964;2024-01-15T16:17:24;51203.06;;;-146.02;55.21
57000;BME280;42891;50.006;21.964;2024-01-15T16:21:24;51211.09;;;-146.02;55.41
57000;BME280;42891;50.006;21.964;2024-01-15T16:25:24;51201.06;;;-146.02;55.24
57000;BME280;42891;50.006;21.964;2024-01-15T16:29:25;51183.03;;;-146.02;55.57
57000;BME280;42891;50.006;21.964;2024-01-15T16:33:25;51199.06;;;-146.02;55.54
57000;BME280;42891;50.006;21.964;2024-01-15T16:37:26;51191.03;;;-146.02;55.50
57000;BME280;42891;50.006;21.964;2024-01-15T16:41:26;51179.03;;;-146.02;55.73
57000;BME280;42891;50.006;21.964;2024-01-15T16:45:26;51187.03;;;-146.02;55.91
57000;BME280;42891;50.006;21.964;2024-01-15T16:49:27;51213.09;;;-146.02;55.74
57000;BME280;42891;50.006;21.964;2024-01-15T16:53:27;51219.09;;;-146.02;55.93
57000;BME280;42891;50.006;21.964;2024-01-15T16:57:28;51221.09;;;-146.02;55.95
57000;BME280;42891;50.006;21.964;2024-01-15T17:01:28;51215.09;;;-146.02;55.51
57000;BME280;42891;50.006;21.964;2024-01-15T17:05:28;51201.06;;;-146.02;55.61
57000;BME280;42891;50.006;21.964;2024-01-15T17:09:29;51189.03;;;-146.02;55.80
57000;BME280;42891;50.006;21.964;2024-01-15T17:13:29;51181.03;;;-146.02;55.51
57000;BME280;42891;50.006;21.964;2024-01-15T17:17:29;51205.06;;;-146.02;56.01
57000;BME280;42891;50.006;21.964;2024-01-15T17:21:30;51227.13;;;-146.02;55.60
57000;BME280;42891;50.006;21.964;2024-01-15T17:25:30;51235.13;;;-146.02;55.46
57000;BME280;42891;50.006;21.964;2024-01-15T17:29:30;51175.00;;;-146.02;56.02
57000;BME280;42891;50.006;21.964;2024-01-15T17:33:31;51179.03;;;-146.02;55.90
57000;BME280;42891;50.006;21.964;2024-01-15T17:37:31;51193.06;;;-146.02;55.98
57000;BME280;42891;50.006;21.964;2024-01-15T17:41:32;51199.06;;;-146.02;56.09
57000;BME280;42891;50.006;21.964;2024-01-15T17:45:32;51191.03;;;-146.02;56.10
57000;BME280;42891;50.006;21.964;2024-01-15T17:49:33;51201.06;;;-146.02;55.57
57000;BME280;42891;50.006;21.964;2024-01-15T17:53:33;51241.16;;;-146.02;56.21
57000;BME280;42891;50.006;21.964;2024-01-15T17:57:33;51185.03;;;-146.02;55.86
57000;BME280;42891;50.006;21.964;2024-01-15T18:01:34;51227.13;;;-146.02;55.79
57000;BME280;42891;50.006;21.964;2024-01-15T18:05:35;51199.06;;;-146.02;56.22
57000;BME280;42891;50.006;21.964;2024-01-15T18:09:36;51195.06;;;-146.02;56.45
57000;BME280;42891;50.006;21.964;2024-01-15T18:13:36;51201.06;;;-146.02;55.38
57000;BME280;42891;50.006;21.964;2024-01-15T18:17:36;51195.06;;;-146.02;55.45
57000;BME280;42891;50.006;21.964;2024-01-15T18:21:37;51211.09;;;-146.02;55.14
57000;BME280;42891;50.006;21.964;2024-01-15T18:25:37;51215.09;;;-146.02;55.18
57000;BME280;42891;50.006;21.964;2024-01-15T18:29:40;51175.00;;;-146.02;55.28
57000;BME280;42891;50.006;21.964;2024-01-15T18:33:40;51213.09;;;-146.02;55.43
57000;BME280;42891;50.006;21.964;2024-01-15T18:37:44;51183.03;;;-146.02;55.96
57000;BME280;42891;50.006;21.964;2024-01-15T18:41:44;51203.06;;;-146.02;55.66
57000;BME280;42891;50.006;21.964;2024-01-15T18:45:46;51191.03;;;-146.02;55.50
57000;BME280;42891;50.006;21.964;2024-01-15T18:49:47;51179.03;;;-146.02;55.60
57000;BME280;42891;50.006;21.964;2024-01-15T18:53:47;51203.06;;;-146.02;55.10
57000;BME280;42891;50.006;21.964;2024-01-15T18:57:48;51193.06;;;-146.02;55.05
57000;BME280;42891;50.006;21.964;2024-01-15T19:01:48;51169.00;;;-146.02;54.76
57000;BME280;42891;50.006;21.964;2024-01-15T19:05:50;51211.09;;;-146.02;54.93
57000;BME280;42891;50.006;21.964;2024-01-15T19:09:50;51207.06;;;-146.02;54.71
57000;BME280;42891;50.006;21.964;2024-01-15T19:13:51;51158.97;;;-146.02;55.28
57000;BME280;42891;50.006;21.964;2024-01-15T19:17:52;51215.09;;;-146.02;55.17
57000;BME280;42891;50.006;21.964;2024-01-15T19:21:52;51211.09;;;-146.02;54.79
57000;BME280;42891;50.006;21.964;2024-01-15T19:25:52;51213.09;;;-146.02;54.57
57000;BME280;42891;50.006;21.964;2024-01-15T19:29:53;51193.06;;;-146.02;55.30
57000;BME280;42891;50.006;21.964;2024-01-15T19:33:53;51215.09;;;-146.02;55.10
57000;BME280;42891;50.006;21.964;2024-01-15T19:37:54;51207.06;;;-146.02;54.91
57000;BME280;42891;50.006;21.964;2024-01-15T19:41:55;51177.03;;;-146.02;54.51
57000;BME280;42891;50.006;21.964;2024-01-15T19:45:55;51171.00;;;-146.02;55.22
57000;BME280;42891;50.006;21.964;2024-01-15T19:49:56;51243.16;;;-146.02;54.79
57000;BME280;42891;50.006;21.964;2024-01-15T19:53:57;51171.00;;;-146.02;54.91
57000;BME280;42891;50.006;21.964;2024-01-15T19:57:57;51199.06;;;-146.02;55.01
57000;BME280;42891;50.006;21.964;2024-01-15T20:01:58;51199.06;;;-146.02;55.43
57000;BME280;42891;50.006;21.964;2024-01-15T20:05:58;51187.03;;;-146.02;55.05
57000;BME280;42891;50.006;21.964;2024-01-15T20:09:58;51211.09;;;-146.02;55.66
57000;BME280;42891;50.006;21.964;2024-01-15T20:13:58;51229.13;;;-146.02;55.52
57000;BME280;42891;50.006;21.964;2024-01-15T20:17:59;51183.03;;;-146.02;56.01
57000;BME280;42891;50.006;21.964;2024-01-15T20:21:59;51207.06;;;-146.02;55.54
57000;BME280;42891;50.006;21.964;2024-01-15T20:26:00;51181.03;;;-146.02;55.77